« 定点 富山空港 2020/8/4 tue | トップページ | 趣味的航空路誌改訂情報 2020/8/13 thu »

2020/08/08

定点 富山空港 2020/8/8 sat

暦の巡りにより、世間は今日からお盆モードの様。

RJNT 072300Z 05005KT 020V080 8000 VCSH FEW003 BKN008 BKN080 25/23 Q1008

20200808_rjnt_00kirishimamaru2

第二霧島丸 JD3314 JP 霧島汽船/鶴見サンマリン

20200808_rjnt_01kirishimamaru2

穏やかと思いきゃ、台風4号崩れに引っ張られた前線で、うねりがあります。

20200808_rjnt_02ja216a

ANA313 RJTT-RJNT JA216A A320-271N

RJNT 080000Z VRB03KT 9000 VCSH FEW005 BKN012 BKN120 26/23 Q1008

20200808_rjnt_03ja216a

世の中お盆モードなのですが・・・

20200808_rjnt_04ja216a

ANA316 RJNT-RJTT JA216A A320-271N

RJNT 080100Z 34006KT 9000 -SHRA FEW007 SCT120 OVC/// 26/23 Q1008

20200808_rjnt_05karasu

こう見ると、アマビエ様

20200808_rjnt_06ja64an

ANA315 RJTT-RJNT JA64AN B737-881

20200808_rjnt_07arv

昨日からお盆期間中だけ復活した札幌便

20200808_rjnt_08ja9878

JA9878 AS350B THK お休み

RJNT 080200Z 33006KT 9999 -SHRA FEW007 SCT010 BKN060 26/24 Q1008

20200808_rjnt_09ja64an

久しぶりの札幌便で、お見送りも熱が入ります。

20200808_rjnt_10ja64an

ANA1181 RJNT-RJCC JA64AN B737-881

20200808_rjnt_11ja64an

でも需要は、低迷 異例のお盆です。

20200808_rjnt_12rantan

2Fでは台湾ランタン祭りが始まってました。

20200808_rjnt_13rantan

初見の物ばかりで、ほとんどが鳥です。

お昼に土砂振りがあり、撤収しました。夕方には、Wさんが利賀へ捜索に、Tさんが昨日発生した負傷者を収容の為、富山県奥地へそれぞれ出動。帰還が同じ時間になって、二機並びが見れたかも。

 

|

« 定点 富山空港 2020/8/4 tue | トップページ | 趣味的航空路誌改訂情報 2020/8/13 thu »

富山空港」カテゴリの記事

コメント

コメントを書く



(ウェブ上には掲載しません)


コメントは記事投稿者が公開するまで表示されません。



« 定点 富山空港 2020/8/4 tue | トップページ | 趣味的航空路誌改訂情報 2020/8/13 thu »